createdAt,value
2022-12-23T00:00:16.080Z,5.57
2022-12-23T00:02:21.933Z,4.83
2022-12-23T00:03:25.161Z,4.43
2022-12-23T00:04:28.484Z,5.00
2022-12-23T00:05:37.319Z,5.00
2022-12-23T00:06:35.767Z,5.00
2022-12-23T00:07:39.056Z,5.00
2022-12-23T00:08:42.185Z,3.14
2022-12-23T00:09:45.328Z,2.86
2022-12-23T00:10:48.704Z,4.43
2022-12-23T00:11:51.885Z,4.29
2022-12-23T00:12:54.965Z,3.33
2022-12-23T00:13:58.042Z,3.83
2022-12-23T00:15:01.139Z,3.29
2022-12-23T00:16:04.481Z,4.00
2022-12-23T00:17:21.659Z,4.57
2022-12-23T00:18:12.002Z,3.87
2022-12-23T00:19:15.283Z,4.00
2022-12-23T00:20:18.472Z,3.33
2022-12-23T00:21:21.661Z,2.00
2022-12-23T00:22:24.665Z,2.43
2022-12-23T00:23:27.725Z,3.43
2022-12-23T00:24:30.786Z,3.17
2022-12-23T00:25:33.865Z,3.00
2022-12-23T00:26:36.852Z,2.83
2022-12-23T00:27:39.923Z,2.67
2022-12-23T00:28:42.874Z,2.67
2022-12-23T00:29:45.871Z,1.67
2022-12-23T00:30:48.964Z,2.43
2022-12-23T00:31:52.160Z,1.67
2022-12-23T00:32:55.225Z,1.86
2022-12-23T00:33:58.504Z,2.57
2022-12-23T00:35:01.487Z,2.00
2022-12-23T00:36:04.562Z,2.33
2022-12-23T00:37:07.538Z,3.00
2022-12-23T00:38:10.720Z,4.00
2022-12-23T00:39:13.838Z,3.57
2022-12-23T00:40:16.868Z,2.83
2022-12-23T00:41:19.955Z,3.00
2022-12-23T00:42:22.934Z,3.71
2022-12-23T00:43:26.119Z,3.71
2022-12-23T00:44:29.189Z,3.57
2022-12-23T00:45:32.367Z,3.29
2022-12-23T00:46:35.381Z,3.00
2022-12-23T00:47:38.631Z,2.71
2022-12-23T00:48:48.167Z,2.43
2022-12-23T00:49:51.141Z,3.00
2022-12-23T00:50:54.322Z,3.00
2022-12-23T00:51:57.401Z,2.86
2022-12-23T00:53:00.384Z,3.43
2022-12-23T00:54:03.480Z,3.67
2022-12-23T00:55:06.436Z,3.00
2022-12-23T00:56:09.727Z,3.00
2022-12-23T00:57:13.116Z,3.00
2022-12-23T00:58:16.292Z,3.00
2022-12-23T00:59:19.584Z,2.86
2022-12-23T01:00:22.760Z,3.57
2022-12-23T01:01:27.334Z,3.71
2022-12-23T01:02:30.860Z,3.50
2022-12-23T01:03:34.386Z,3.57
2022-12-23T01:04:37.634Z,3.43
2022-12-23T01:05:40.827Z,3.71
2022-12-23T01:06:43.790Z,3.00
2022-12-23T01:07:46.971Z,3.29
2022-12-23T01:08:49.951Z,3.43
2022-12-23T01:09:53.035Z,3.14
2022-12-23T01:10:56.131Z,3.00
2022-12-23T01:11:59.506Z,4.43
2022-12-23T01:13:02.685Z,4.29
2022-12-23T01:14:05.862Z,4.00
2022-12-23T01:15:08.945Z,4.00
2022-12-23T01:16:16.883Z,3.67
2022-12-23T01:17:16.459Z,4.00
2022-12-23T01:18:19.711Z,4.43
2022-12-23T01:19:22.698Z,4.43
2022-12-23T01:20:25.688Z,3.71
2022-12-23T01:21:28.981Z,3.33
2022-12-23T01:22:32.232Z,4.00
2022-12-23T01:23:35.543Z,4.43
2022-12-23T01:24:38.916Z,4.57
2022-12-23T01:25:42.214Z,4.00
2022-12-23T01:26:45.368Z,5.33
2022-12-23T01:27:48.556Z,5.29
2022-12-23T01:28:51.849Z,4.29
2022-12-23T01:29:55.131Z,3.57
2022-12-23T01:30:58.410Z,3.43
2022-12-23T01:32:01.630Z,3.57
2022-12-23T01:33:04.978Z,3.43
2022-12-23T01:34:08.056Z,4.29
2022-12-23T01:35:11.245Z,4.29
2022-12-23T01:36:14.731Z,3.43
2022-12-23T01:37:20.882Z,3.43
2022-12-23T01:38:23.967Z,4.00
2022-12-23T01:39:27.341Z,4.14
2022-12-23T01:40:30.442Z,4.14
2022-12-23T01:41:33.502Z,4.86
2022-12-23T01:42:36.484Z,4.14
2022-12-23T01:43:39.551Z,4.14
2022-12-23T01:44:42.548Z,5.00
2022-12-23T01:45:45.539Z,3.83
2022-12-23T01:46:48.594Z,4.00
2022-12-23T01:47:51.591Z,4.86
2022-12-23T01:48:54.650Z,4.14
2022-12-23T01:49:57.736Z,3.86
2022-12-23T01:51:00.814Z,4.00
2022-12-23T01:52:03.785Z,4.86
2022-12-23T01:53:07.994Z,4.57
2022-12-23T01:54:11.073Z,5.00
2022-12-23T01:55:14.472Z,5.14
2022-12-23T01:56:30.036Z,5.00
2022-12-23T01:57:33.108Z,5.25
2022-12-23T01:58:36.087Z,5.00
2022-12-23T01:59:39.180Z,5.00
2022-12-23T02:00:42.139Z,4.67
2022-12-23T02:01:45.268Z,4.33
2022-12-23T02:02:48.610Z,4.50
2022-12-23T02:03:51.695Z,3.57
2022-12-23T02:04:54.867Z,4.29
2022-12-23T02:05:57.864Z,5.00
2022-12-23T02:07:00.791Z,5.86
2022-12-23T02:08:03.903Z,6.29
2022-12-23T02:09:07.088Z,5.00
2022-12-23T02:10:10.275Z,4.14
2022-12-23T02:11:13.221Z,2.57
2022-12-23T02:12:16.430Z,3.83
2022-12-23T02:13:19.515Z,4.00
2022-12-23T02:14:22.692Z,4.00
2022-12-23T02:15:25.667Z,4.00
2022-12-23T02:16:28.879Z,3.57
2022-12-23T02:17:31.943Z,4.00
2022-12-23T02:18:35.017Z,3.14
2022-12-23T02:19:38.095Z,3.57
2022-12-23T02:20:41.172Z,5.00
2022-12-23T02:21:44.354Z,5.00
2022-12-23T02:22:47.728Z,4.86
2022-12-23T02:23:50.713Z,3.29
2022-12-23T02:24:53.790Z,4.00
2022-12-23T02:25:56.842Z,4.00
2022-12-23T02:26:59.849Z,4.00
2022-12-23T02:28:02.935Z,4.00
2022-12-23T02:29:06.009Z,3.57
2022-12-23T02:30:08.986Z,4.33
2022-12-23T02:31:12.128Z,4.50
2022-12-23T02:32:15.141Z,4.33
2022-12-23T02:33:18.221Z,4.00
2022-12-23T02:34:24.576Z,3.67
2022-12-23T02:35:28.171Z,3.62
2022-12-23T02:36:31.657Z,4.43
2022-12-23T02:37:35.046Z,4.14
2022-12-23T02:38:38.303Z,3.00
2022-12-23T02:39:41.437Z,3.00
2022-12-23T02:40:44.721Z,3.43
2022-12-23T02:41:47.996Z,2.86
2022-12-23T02:42:51.143Z,3.43
2022-12-23T02:43:54.439Z,3.57
2022-12-23T02:44:57.751Z,3.29
2022-12-23T02:46:01.041Z,3.67
2022-12-23T02:47:04.029Z,3.00
2022-12-23T02:48:07.285Z,2.86
2022-12-23T02:49:10.560Z,4.00
2022-12-23T02:50:13.950Z,3.14
2022-12-23T02:51:17.231Z,3.00
2022-12-23T02:52:20.609Z,3.00
2022-12-23T02:53:23.961Z,3.00
2022-12-23T02:54:27.082Z,2.57
2022-12-23T02:55:30.592Z,2.57
2022-12-23T02:56:33.967Z,2.50
2022-12-23T02:57:37.290Z,2.57
2022-12-23T02:58:43.390Z,2.43
2022-12-23T02:59:46.693Z,2.00
2022-12-23T03:00:49.981Z,2.29
2022-12-23T03:01:53.107Z,3.00
2022-12-23T03:02:56.284Z,2.14
2022-12-23T03:04:02.521Z,2.00
2022-12-23T03:05:05.682Z,1.50
2022-12-23T03:06:08.630Z,2.00
2022-12-23T03:07:15.132Z,2.00
2022-12-23T03:08:15.924Z,2.50
2022-12-23T03:09:19.197Z,3.00
2022-12-23T03:10:22.280Z,3.00
2022-12-23T03:11:25.233Z,2.57
2022-12-23T03:12:28.244Z,2.43
2022-12-23T03:13:31.442Z,2.71
2022-12-23T03:14:34.389Z,3.00
2022-12-23T03:15:37.477Z,2.67
2022-12-23T03:16:41.080Z,2.17
2022-12-23T03:17:44.259Z,2.86
2022-12-23T03:18:47.529Z,2.00
2022-12-23T03:19:50.709Z,2.00
2022-12-23T03:20:54.004Z,1.86
2022-12-23T03:21:57.398Z,2.57
2022-12-23T03:23:00.677Z,2.86
2022-12-23T03:24:04.584Z,3.14
2022-12-23T03:25:08.242Z,3.00
2022-12-23T03:26:11.472Z,2.00
2022-12-23T03:27:14.723Z,2.83
2022-12-23T03:28:18.024Z,2.71
2022-12-23T03:29:21.300Z,2.00
2022-12-23T03:30:24.561Z,1.86
2022-12-23T03:31:27.817Z,1.43
2022-12-23T03:32:31.273Z,2.43
2022-12-23T03:33:34.956Z,2.71
2022-12-23T03:34:38.735Z,2.57
2022-12-23T03:35:42.229Z,2.00
2022-12-23T03:36:45.541Z,2.83
2022-12-23T03:37:48.804Z,3.00
2022-12-23T03:38:52.074Z,2.43
2022-12-23T03:39:55.274Z,3.57
2022-12-23T03:40:58.853Z,3.00
2022-12-23T03:42:02.072Z,3.43
2022-12-23T03:43:05.331Z,3.50
2022-12-23T03:44:09.012Z,3.57
2022-12-23T03:45:37.566Z,2.43
2022-12-23T03:46:16.891Z,3.00
2022-12-23T03:47:20.073Z,3.00
2022-12-23T03:48:23.301Z,3.00
2022-12-23T03:49:26.709Z,2.57
2022-12-23T03:50:30.470Z,2.33
2022-12-23T03:51:33.668Z,2.29
2022-12-23T03:52:37.258Z,2.57
2022-12-23T03:53:40.933Z,2.25
2022-12-23T03:54:44.229Z,2.57
2022-12-23T03:55:47.920Z,3.29
2022-12-23T03:56:51.802Z,2.14
2022-12-23T03:57:54.960Z,2.12
2022-12-23T03:58:58.138Z,2.71
2022-12-23T04:00:01.852Z,2.86
2022-12-23T04:01:05.147Z,3.50
2022-12-23T04:02:08.539Z,2.86
2022-12-23T04:03:11.923Z,2.14
2022-12-23T04:04:15.366Z,3.14
2022-12-23T04:05:18.716Z,3.29
2022-12-23T04:06:22.084Z,2.43
2022-12-23T04:07:25.517Z,3.12
2022-12-23T04:08:29.158Z,2.71
2022-12-23T04:09:32.170Z,3.00
2022-12-23T04:10:35.238Z,3.00
2022-12-23T04:11:46.892Z,2.43
2022-12-23T04:12:50.088Z,2.75
2022-12-23T04:13:53.480Z,2.71
2022-12-23T04:14:56.680Z,2.14
2022-12-23T04:15:59.970Z,1.67
2022-12-23T04:17:03.230Z,3.00
2022-12-23T04:18:06.427Z,3.00
2022-12-23T04:19:09.894Z,3.14
2022-12-23T04:20:13.139Z,2.00
2022-12-23T04:21:16.058Z,2.33
2022-12-23T04:22:19.491Z,3.00
2022-12-23T04:23:22.422Z,2.43
2022-12-23T04:24:25.498Z,2.00
2022-12-23T04:25:28.568Z,3.00
2022-12-23T04:26:31.761Z,3.00
2022-12-23T04:27:35.441Z,2.57
2022-12-23T04:28:38.630Z,2.75
2022-12-23T04:29:41.614Z,3.14
2022-12-23T04:30:44.583Z,2.33
2022-12-23T04:31:47.952Z,2.33
2022-12-23T04:32:50.854Z,3.00
2022-12-23T04:33:54.056Z,2.67
2022-12-23T04:34:57.217Z,2.00
2022-12-23T04:36:00.488Z,2.33
2022-12-23T04:37:03.748Z,3.00
2022-12-23T04:38:07.158Z,2.57
2022-12-23T04:39:10.638Z,2.57
2022-12-23T04:40:13.542Z,2.00
2022-12-23T04:41:16.618Z,3.83
2022-12-23T04:42:19.748Z,2.67
2022-12-23T04:43:23.282Z,2.43
2022-12-23T04:44:26.682Z,3.00
2022-12-23T04:45:30.128Z,3.00
2022-12-23T04:46:33.175Z,3.00
2022-12-23T04:47:36.324Z,2.29
2022-12-23T04:48:39.899Z,2.71
2022-12-23T04:49:43.249Z,2.71
2022-12-23T04:50:46.188Z,2.14
2022-12-23T04:51:49.259Z,2.14
2022-12-23T04:52:52.336Z,2.00
2022-12-23T04:53:55.427Z,2.00
2022-12-23T04:54:58.404Z,2.50
2022-12-23T04:56:01.723Z,2.67
2022-12-23T04:57:04.734Z,1.71
2022-12-23T04:58:08.009Z,2.67
2022-12-23T04:59:11.015Z,3.00
2022-12-23T05:00:14.219Z,2.67
2022-12-23T05:01:17.291Z,2.00
2022-12-23T05:02:20.363Z,2.00
2022-12-23T05:03:23.526Z,2.86
2022-12-23T05:04:26.998Z,3.57
2022-12-23T05:05:30.120Z,2.14
2022-12-23T05:06:33.081Z,2.17
2022-12-23T05:07:36.658Z,1.83
2022-12-23T05:08:39.859Z,2.50
2022-12-23T05:09:43.370Z,2.86
2022-12-23T05:10:46.535Z,2.14
2022-12-23T05:11:53.207Z,1.86
2022-12-23T05:12:56.508Z,2.50
2022-12-23T05:13:59.552Z,3.00
2022-12-23T05:15:02.831Z,3.00
2022-12-23T05:16:05.891Z,3.00
2022-12-23T05:17:08.897Z,2.67
2022-12-23T05:18:11.895Z,2.33
2022-12-23T05:19:23.037Z,3.00
2022-12-23T05:20:26.886Z,3.00
2022-12-23T05:21:30.133Z,3.43
2022-12-23T05:22:33.733Z,3.00
2022-12-23T05:23:37.089Z,3.71
2022-12-23T05:24:40.539Z,3.00
2022-12-23T05:25:43.956Z,3.00
2022-12-23T05:26:48.078Z,3.00
2022-12-23T05:27:51.764Z,3.50
2022-12-23T05:28:55.258Z,4.00
2022-12-23T05:29:58.652Z,4.00
2022-12-23T05:31:01.740Z,3.71
2022-12-23T05:32:04.900Z,4.00
2022-12-23T05:33:08.072Z,4.00
2022-12-23T05:34:11.199Z,4.33
2022-12-23T05:35:14.919Z,4.67
2022-12-23T05:36:18.143Z,4.00
2022-12-23T05:37:21.790Z,4.00
2022-12-23T05:38:25.025Z,4.00
2022-12-23T05:39:28.353Z,4.43
2022-12-23T05:40:32.763Z,4.57
2022-12-23T05:41:35.898Z,3.75
2022-12-23T05:42:39.282Z,3.86
2022-12-23T05:43:42.571Z,3.00
2022-12-23T05:44:45.753Z,3.86
2022-12-23T05:45:49.431Z,4.00
2022-12-23T05:46:52.627Z,3.87
2022-12-23T05:47:55.924Z,3.57
2022-12-23T05:48:59.495Z,3.43
2022-12-23T05:50:02.946Z,4.57
2022-12-23T05:51:06.285Z,2.87
2022-12-23T05:52:09.809Z,2.57
2022-12-23T05:53:13.063Z,3.29
2022-12-23T05:54:16.933Z,3.43
2022-12-23T05:55:20.726Z,3.57
2022-12-23T05:56:24.129Z,2.14
2022-12-23T05:57:27.084Z,1.71
2022-12-23T05:58:30.289Z,2.50
2022-12-23T05:59:33.547Z,3.43
2022-12-23T06:00:37.150Z,4.00
2022-12-23T06:01:40.920Z,3.50
2022-12-23T06:02:48.472Z,3.50
2022-12-23T06:03:49.353Z,4.00
2022-12-23T06:04:52.736Z,3.50
2022-12-23T06:05:56.036Z,2.57
2022-12-23T06:06:59.625Z,2.57
2022-12-23T06:08:03.329Z,3.00
2022-12-23T06:09:06.614Z,3.00
2022-12-23T06:10:10.068Z,3.00
2022-12-23T06:11:13.574Z,3.57
2022-12-23T06:12:16.906Z,3.57
2022-12-23T06:13:20.075Z,3.14
2022-12-23T06:14:28.577Z,3.50
2022-12-23T06:15:28.269Z,3.50
2022-12-23T06:16:31.538Z,3.00
2022-12-23T06:17:34.939Z,3.00
2022-12-23T06:18:38.126Z,3.29
2022-12-23T06:19:41.405Z,2.86
2022-12-23T06:20:45.081Z,3.00
2022-12-23T06:21:49.080Z,3.00
2022-12-23T06:22:52.482Z,3.00
2022-12-23T06:23:55.780Z,3.43
2022-12-23T06:24:59.053Z,4.00
2022-12-23T06:26:02.739Z,3.57
2022-12-23T06:27:13.899Z,2.14
2022-12-23T06:28:17.982Z,2.87
2022-12-23T06:29:21.627Z,4.00
2022-12-23T06:30:25.079Z,3.57
2022-12-23T06:31:28.833Z,3.00
2022-12-23T06:32:37.900Z,2.57
2022-12-23T06:33:36.595Z,3.25
2022-12-23T06:34:39.771Z,3.86
2022-12-23T06:35:43.346Z,3.71
2022-12-23T06:36:46.555Z,3.50
2022-12-23T06:37:49.834Z,3.00
2022-12-23T06:38:53.619Z,3.43
2022-12-23T06:39:57.026Z,3.43
2022-12-23T06:41:00.807Z,3.29
2022-12-23T06:42:04.004Z,2.71
2022-12-23T06:43:07.202Z,2.00
2022-12-23T06:44:10.019Z,3.33
2022-12-23T06:45:13.135Z,3.00
2022-12-23T06:46:16.242Z,3.00
2022-12-23T06:47:19.392Z,3.14
2022-12-23T06:48:22.569Z,3.29
2022-12-23T06:49:25.654Z,3.00
2022-12-23T06:50:28.791Z,3.00
2022-12-23T06:51:32.011Z,3.00
2022-12-23T06:52:35.405Z,3.43
2022-12-23T06:53:38.788Z,3.00
2022-12-23T06:54:42.082Z,2.86
2022-12-23T06:55:45.540Z,3.00
2022-12-23T06:56:48.740Z,3.00
2022-12-23T06:57:51.930Z,3.00
2022-12-23T06:58:55.213Z,2.43
2022-12-23T06:59:58.574Z,2.14
2022-12-23T07:01:02.039Z,2.57
2022-12-23T07:02:05.932Z,2.00
2022-12-23T07:03:09.293Z,2.57
2022-12-23T07:04:13.052Z,3.00
2022-12-23T07:05:16.152Z,2.57
2022-12-23T07:06:19.431Z,2.43
2022-12-23T07:07:22.880Z,3.00
2022-12-23T07:08:26.000Z,3.00
2022-12-23T07:09:29.379Z,3.00
2022-12-23T07:10:32.576Z,3.29
2022-12-23T07:11:35.950Z,4.00
2022-12-23T07:12:39.245Z,3.14
2022-12-23T07:13:42.418Z,3.00
2022-12-23T07:14:46.004Z,3.00
2022-12-23T07:15:49.682Z,3.00
2022-12-23T07:16:52.954Z,2.86
2022-12-23T07:17:56.469Z,3.00
2022-12-23T07:19:00.147Z,3.00
2022-12-23T07:20:03.751Z,2.86
2022-12-23T07:21:11.868Z,3.57
2022-12-23T07:22:11.879Z,3.00
2022-12-23T07:23:15.044Z,3.00
2022-12-23T07:24:18.516Z,2.57
2022-12-23T07:25:21.818Z,2.29
2022-12-23T07:26:25.402Z,3.14
2022-12-23T07:27:28.414Z,2.57
2022-12-23T07:28:31.650Z,2.67
2022-12-23T07:29:34.672Z,2.86
2022-12-23T07:30:37.747Z,2.33
2022-12-23T07:31:41.214Z,2.33
2022-12-23T07:32:44.897Z,3.00
2022-12-23T07:33:48.486Z,3.00
2022-12-23T07:34:55.425Z,2.62
2022-12-23T07:35:58.625Z,2.12
2022-12-23T07:37:01.735Z,1.57
2022-12-23T07:38:05.120Z,2.00
2022-12-23T07:39:08.405Z,2.57
2022-12-23T07:40:12.287Z,3.00
2022-12-23T07:41:15.836Z,3.43
2022-12-23T07:42:44.046Z,3.50
2022-12-23T07:43:23.388Z,1.62
2022-12-23T07:44:26.571Z,1.86
2022-12-23T07:45:29.955Z,1.86
2022-12-23T07:46:33.097Z,1.00
2022-12-23T07:47:36.126Z,2.00
2022-12-23T07:48:39.298Z,3.00
2022-12-23T07:49:42.243Z,3.00
2022-12-23T07:50:45.212Z,3.00
2022-12-23T07:51:48.024Z,3.00
2022-12-23T07:52:51.601Z,2.00
2022-12-23T07:53:54.877Z,2.00
2022-12-23T07:54:58.265Z,2.29
2022-12-23T07:56:01.364Z,3.00
2022-12-23T07:57:04.340Z,3.14
2022-12-23T07:58:07.705Z,1.71
2022-12-23T07:59:10.987Z,2.29
2022-12-23T08:00:14.164Z,2.71
2022-12-23T08:01:17.311Z,2.14
2022-12-23T08:02:20.981Z,3.00
2022-12-23T08:03:24.207Z,3.37
2022-12-23T08:04:27.573Z,3.67
2022-12-23T08:05:30.693Z,3.00
2022-12-23T08:06:34.088Z,3.00
2022-12-23T08:07:37.781Z,2.14
2022-12-23T08:08:41.151Z,1.62
2022-12-23T08:09:44.456Z,2.57
2022-12-23T08:10:48.508Z,1.57
2022-12-23T08:11:52.255Z,1.25
2022-12-23T08:12:55.577Z,1.43
2022-12-23T08:13:58.536Z,2.00
2022-12-23T08:15:02.059Z,2.29
2022-12-23T08:16:05.428Z,1.71
2022-12-23T08:17:08.475Z,2.43
2022-12-23T08:18:11.772Z,2.29
2022-12-23T08:19:14.928Z,2.43
2022-12-23T08:20:18.314Z,3.00
2022-12-23T08:21:21.599Z,2.33
2022-12-23T08:22:24.897Z,1.43
2022-12-23T08:23:28.092Z,2.29
2022-12-23T08:24:31.171Z,2.86
2022-12-23T08:25:34.152Z,2.29
2022-12-23T08:26:37.352Z,2.33
2022-12-23T08:27:40.689Z,2.00
2022-12-23T08:28:44.074Z,2.33
2022-12-23T08:29:47.359Z,2.14
2022-12-23T08:30:50.378Z,1.43
2022-12-23T08:31:53.648Z,2.00
2022-12-23T08:32:56.795Z,2.57
2022-12-23T08:34:00.412Z,3.00
2022-12-23T08:35:03.897Z,3.00
2022-12-23T08:36:07.094Z,3.00
2022-12-23T08:37:10.289Z,2.57
2022-12-23T08:38:13.148Z,2.00
2022-12-23T08:39:16.432Z,2.83
2022-12-23T08:40:19.410Z,2.71
2022-12-23T08:41:22.641Z,2.00
2022-12-23T08:43:46.163Z,2.75
2022-12-23T08:44:49.342Z,2.33
2022-12-23T08:45:53.228Z,3.00
2022-12-23T08:46:56.221Z,3.00
2022-12-23T08:47:59.406Z,3.43
2022-12-23T08:49:02.764Z,2.57
2022-12-23T08:50:05.923Z,1.71
2022-12-23T08:51:08.987Z,2.00
2022-12-23T08:52:12.206Z,2.43
2022-12-23T08:53:15.524Z,4.00
2022-12-23T08:54:18.487Z,3.14
2022-12-23T08:55:21.845Z,2.57
2022-12-23T08:56:25.061Z,3.00
2022-12-23T08:57:28.337Z,3.43
2022-12-23T08:58:31.913Z,2.71
2022-12-23T08:59:35.195Z,2.57
2022-12-23T09:00:38.409Z,2.43
2022-12-23T09:01:41.688Z,4.00
2022-12-23T09:02:45.483Z,3.29
2022-12-23T09:03:49.168Z,3.86
2022-12-23T09:04:52.638Z,3.12
2022-12-23T09:05:56.227Z,3.00
2022-12-23T09:06:59.642Z,3.00
2022-12-23T09:08:03.119Z,4.00
2022-12-23T09:09:06.419Z,3.14
2022-12-23T09:10:09.891Z,2.71
2022-12-23T09:11:13.079Z,3.00
2022-12-23T09:12:16.376Z,3.43
2022-12-23T09:13:27.798Z,4.00
2022-12-23T09:14:24.790Z,4.00
2022-12-23T09:15:28.528Z,3.86
2022-12-23T09:16:32.112Z,3.00
2022-12-23T09:17:35.969Z,3.50
2022-12-23T09:18:39.630Z,3.57
2022-12-23T09:19:45.895Z,2.37
2022-12-23T09:20:47.628Z,3.50
2022-12-23T09:21:51.327Z,4.00
2022-12-23T09:22:54.814Z,4.25
2022-12-23T09:23:58.415Z,4.14
2022-12-23T09:25:05.297Z,4.14
2022-12-23T09:26:06.832Z,3.25
2022-12-23T09:27:10.312Z,3.75
2022-12-23T09:28:13.931Z,3.00
2022-12-23T09:29:17.599Z,3.50
2022-12-23T09:30:21.224Z,3.00
2022-12-23T09:31:25.938Z,3.75
2022-12-23T09:32:29.186Z,4.00
2022-12-23T09:33:32.736Z,4.00
2022-12-23T09:34:36.382Z,4.50
2022-12-23T09:35:39.871Z,3.71
2022-12-23T09:36:43.349Z,4.00
2022-12-23T09:37:47.146Z,3.25
2022-12-23T09:38:50.672Z,3.00
2022-12-23T09:39:54.226Z,4.00
2022-12-23T09:40:57.625Z,4.00
2022-12-23T09:42:01.059Z,4.29
2022-12-23T09:43:04.408Z,4.29
2022-12-23T09:44:07.983Z,3.43
2022-12-23T09:45:11.296Z,2.43
2022-12-23T09:46:14.704Z,3.00
2022-12-23T09:47:18.036Z,3.00
2022-12-23T09:48:21.121Z,4.00
2022-12-23T09:49:24.417Z,4.00
2022-12-23T09:50:34.854Z,4.00
2022-12-23T09:51:38.035Z,3.75
2022-12-23T09:52:41.240Z,3.00
2022-12-23T09:53:44.394Z,3.57
2022-12-23T09:54:47.685Z,4.00
2022-12-23T09:55:50.971Z,3.43
2022-12-23T09:56:54.148Z,4.00
2022-12-23T09:57:57.448Z,4.00
2022-12-23T09:59:00.616Z,4.00
2022-12-23T10:00:04.330Z,4.43
2022-12-23T10:01:08.025Z,3.50
2022-12-23T10:02:11.570Z,3.00
2022-12-23T10:03:15.122Z,3.29
2022-12-23T10:04:18.517Z,3.43
2022-12-23T10:05:21.965Z,4.00
2022-12-23T10:06:25.345Z,4.00
2022-12-23T10:07:28.731Z,4.57
2022-12-23T10:08:32.231Z,4.14
2022-12-23T10:09:35.395Z,4.29
2022-12-23T10:10:38.587Z,4.00
2022-12-23T10:11:41.905Z,3.43
2022-12-23T10:12:45.062Z,4.00
2022-12-23T10:13:48.542Z,3.14
2022-12-23T10:14:51.724Z,3.43
2022-12-23T10:15:54.897Z,3.86
2022-12-23T10:16:58.095Z,4.00
2022-12-23T10:18:01.379Z,3.57
2022-12-23T10:19:04.490Z,3.43
2022-12-23T10:20:07.833Z,4.00
2022-12-23T10:21:11.122Z,4.86
2022-12-23T10:22:14.509Z,4.57
2022-12-23T10:23:17.807Z,3.14
2022-12-23T10:24:20.985Z,4.29
2022-12-23T10:25:24.381Z,4.43
2022-12-23T10:26:27.537Z,4.57
2022-12-23T10:27:30.826Z,3.86
2022-12-23T10:28:34.206Z,3.43
2022-12-23T10:29:37.909Z,3.50
2022-12-23T10:31:45.552Z,4.50
2022-12-23T10:32:48.905Z,4.43
2022-12-23T10:33:52.082Z,4.14
2022-12-23T10:34:55.536Z,4.25
2022-12-23T10:35:58.967Z,4.33
2022-12-23T10:37:02.192Z,4.14
2022-12-23T10:38:05.509Z,4.00
2022-12-23T10:39:08.895Z,4.71
2022-12-23T10:40:12.210Z,4.14
2022-12-23T10:41:15.362Z,4.71
2022-12-23T10:42:18.621Z,4.71
2022-12-23T10:43:21.827Z,4.86
2022-12-23T10:44:25.224Z,3.29
2022-12-23T10:45:28.601Z,4.14
2022-12-23T10:46:31.825Z,5.00
2022-12-23T10:47:35.069Z,4.00
2022-12-23T10:48:38.468Z,4.43
2022-12-23T10:49:41.741Z,5.00
2022-12-23T10:50:45.025Z,5.00
2022-12-23T10:51:48.200Z,5.00
2022-12-23T10:52:51.487Z,5.43
2022-12-23T10:53:54.875Z,5.57
2022-12-23T10:54:58.054Z,5.00
2022-12-23T10:56:01.226Z,5.00
2022-12-23T10:57:04.527Z,4.00
2022-12-23T10:58:19.186Z,5.00
2022-12-23T10:59:22.918Z,5.25
2022-12-23T11:00:26.259Z,4.00
2022-12-23T11:01:29.650Z,4.57
2022-12-23T11:02:32.970Z,5.50
2022-12-23T11:03:36.564Z,5.57
2022-12-23T11:04:40.004Z,5.43
2022-12-23T11:05:46.185Z,5.57
2022-12-23T11:06:52.855Z,5.00
2022-12-23T11:07:53.653Z,5.87
2022-12-23T11:08:56.887Z,5.14
2022-12-23T11:10:00.519Z,4.29
2022-12-23T11:11:04.112Z,5.29
2022-12-23T11:12:07.705Z,6.00
2022-12-23T11:13:11.195Z,5.43
2022-12-23T11:14:14.692Z,5.57
2022-12-23T11:15:18.176Z,4.57
2022-12-23T11:16:21.745Z,6.00
2022-12-23T11:17:25.301Z,6.00
2022-12-23T11:18:28.708Z,6.14
2022-12-23T11:19:32.234Z,6.43
2022-12-23T11:20:35.585Z,5.43
2022-12-23T11:21:38.866Z,6.00
2022-12-23T11:22:42.389Z,5.86
2022-12-23T11:23:45.981Z,6.43
2022-12-23T11:24:49.273Z,4.86
2022-12-23T11:25:52.858Z,4.57
2022-12-23T11:26:56.348Z,6.43
2022-12-23T11:27:59.932Z,6.00
2022-12-23T11:29:03.630Z,5.43
2022-12-23T11:30:06.874Z,6.86
2022-12-23T11:31:11.249Z,6.14
2022-12-23T11:32:14.788Z,5.62
2022-12-23T11:33:18.369Z,5.86
2022-12-23T11:34:22.025Z,5.00
2022-12-23T11:35:25.836Z,5.50
2022-12-23T11:36:29.241Z,6.86
2022-12-23T11:37:32.548Z,6.67
2022-12-23T11:38:36.154Z,5.71
2022-12-23T11:39:39.856Z,5.00
2022-12-23T11:40:43.345Z,5.33
2022-12-23T11:41:46.831Z,7.00
2022-12-23T11:42:53.538Z,6.57
2022-12-23T11:43:54.732Z,6.62
2022-12-23T11:44:58.324Z,6.14
2022-12-23T11:46:01.842Z,6.14
2022-12-23T11:47:05.404Z,6.57
2022-12-23T11:48:08.994Z,6.43
2022-12-23T11:49:12.495Z,6.29
2022-12-23T11:50:15.974Z,5.71
2022-12-23T11:51:19.360Z,6.00
2022-12-23T11:52:22.850Z,5.86
2022-12-23T11:53:26.339Z,7.00
2022-12-23T11:54:29.691Z,7.00
2022-12-23T11:55:33.316Z,7.00
2022-12-23T11:56:36.865Z,7.00
2022-12-23T11:57:40.290Z,7.00
2022-12-23T11:58:43.782Z,6.86
2022-12-23T11:59:47.333Z,6.43
2022-12-23T12:00:55.302Z,7.00
2022-12-23T12:01:55.250Z,6.12
2022-12-23T12:02:58.496Z,6.14
2022-12-23T12:04:02.042Z,6.14
2022-12-23T12:05:05.656Z,6.57
2022-12-23T12:06:16.814Z,6.29
2022-12-23T12:07:20.108Z,6.25
2022-12-23T12:08:23.378Z,7.00
2022-12-23T12:09:26.766Z,6.29
2022-12-23T12:10:30.045Z,7.00
2022-12-23T12:11:33.250Z,6.57
2022-12-23T12:12:36.516Z,6.43
2022-12-23T12:13:40.105Z,6.00
2022-12-23T12:14:43.397Z,5.86
2022-12-23T12:15:46.575Z,6.71
2022-12-23T12:16:49.823Z,6.86
2022-12-23T12:17:52.919Z,6.57
2022-12-23T12:18:56.175Z,7.00
2022-12-23T12:19:59.407Z,7.00
2022-12-23T12:21:02.448Z,6.86
2022-12-23T12:22:05.679Z,6.00
2022-12-23T12:23:08.859Z,6.33
2022-12-23T12:24:18.796Z,7.67
2022-12-23T12:25:16.706Z,6.37
2022-12-23T12:26:20.342Z,5.57
2022-12-23T12:27:23.788Z,5.71
2022-12-23T12:28:27.209Z,6.00
2022-12-23T12:29:30.559Z,7.00
2022-12-23T12:30:34.238Z,6.86
2022-12-23T12:31:38.094Z,6.14
2022-12-23T12:32:41.557Z,6.43
2022-12-23T12:33:45.063Z,7.14
2022-12-23T12:34:48.557Z,6.00
2022-12-23T12:35:53.882Z,6.00
2022-12-23T12:36:56.749Z,7.25
2022-12-23T12:38:00.245Z,7.37
2022-12-23T12:39:03.743Z,7.57
2022-12-23T12:40:07.329Z,7.43
2022-12-23T12:41:10.818Z,7.75
2022-12-23T12:42:14.210Z,7.71
2022-12-23T12:43:17.707Z,8.00
2022-12-23T12:44:21.031Z,8.00
2022-12-23T12:45:24.366Z,8.33
2022-12-23T12:46:27.907Z,8.00
2022-12-23T12:48:35.858Z,8.13
2022-12-23T12:49:39.448Z,8.00
2022-12-23T12:50:42.689Z,7.14
2022-12-23T12:51:46.074Z,7.14
2022-12-23T12:52:49.436Z,6.43
2022-12-23T12:53:52.895Z,6.57
2022-12-23T12:54:56.233Z,6.86
2022-12-23T12:55:59.465Z,6.83
2022-12-23T12:57:03.032Z,6.17
2022-12-23T12:58:06.536Z,6.43
2022-12-23T12:59:10.031Z,6.86
2022-12-23T13:00:13.178Z,6.00
2022-12-23T13:01:16.633Z,6.43
2022-12-23T13:02:20.455Z,5.57
2022-12-23T13:03:24.129Z,6.43
2022-12-23T13:04:27.579Z,7.00
2022-12-23T13:05:31.071Z,7.43
2022-12-23T13:06:34.421Z,7.14
2022-12-23T13:07:38.166Z,6.86
2022-12-23T13:08:41.635Z,7.50
2022-12-23T13:09:44.876Z,6.71
2022-12-23T13:10:48.408Z,7.43
2022-12-23T13:11:51.757Z,7.00
2022-12-23T13:12:55.954Z,7.00
2022-12-23T13:14:05.357Z,7.43
2022-12-23T13:15:08.614Z,8.00
2022-12-23T13:16:11.790Z,8.67
2022-12-23T13:17:15.247Z,8.00
2022-12-23T13:18:18.463Z,8.00
2022-12-23T13:19:21.751Z,8.43
2022-12-23T13:20:24.925Z,7.43
2022-12-23T13:21:28.228Z,7.71
2022-12-23T13:22:31.503Z,7.86
2022-12-23T13:23:43.570Z,9.00
2022-12-23T13:24:38.991Z,8.63
2022-12-23T13:25:42.293Z,9.43
2022-12-23T13:26:45.555Z,10.29
2022-12-23T13:27:48.840Z,9.57
2022-12-23T13:28:52.023Z,9.57
2022-12-23T13:29:58.339Z,10.14
2022-12-23T13:30:59.715Z,9.38
2022-12-23T13:32:03.006Z,8.29
2022-12-23T13:33:06.182Z,9.14
2022-12-23T13:34:09.355Z,9.00
2022-12-23T13:35:12.749Z,8.43
2022-12-23T13:36:15.937Z,7.71
2022-12-23T13:37:19.215Z,8.43
2022-12-23T13:38:22.510Z,7.71
2022-12-23T13:39:25.699Z,7.43
2022-12-23T13:40:28.760Z,8.43
2022-12-23T13:41:31.910Z,7.86
2022-12-23T13:42:35.130Z,8.33
2022-12-23T13:43:38.163Z,7.50
2022-12-23T13:44:41.306Z,8.43
2022-12-23T13:45:44.576Z,8.14
2022-12-23T13:46:48.129Z,8.00
2022-12-23T13:47:51.649Z,7.57
2022-12-23T13:48:54.935Z,7.71
2022-12-23T13:49:58.326Z,7.43
2022-12-23T13:51:01.479Z,7.43
2022-12-23T13:52:04.540Z,8.00
2022-12-23T13:53:07.668Z,8.00
2022-12-23T13:54:10.961Z,8.00
2022-12-23T13:55:14.226Z,8.00
2022-12-23T13:56:17.417Z,7.57
2022-12-23T13:57:20.699Z,7.86
2022-12-23T13:58:23.995Z,8.86
2022-12-23T13:59:27.308Z,8.71
2022-12-23T14:00:30.654Z,8.71
2022-12-23T14:01:33.898Z,8.57
2022-12-23T14:02:37.171Z,8.14
2022-12-23T14:03:40.429Z,8.00
2022-12-23T14:04:43.498Z,7.57
2022-12-23T14:05:46.673Z,8.43
2022-12-23T14:06:49.843Z,8.57
2022-12-23T14:07:53.025Z,7.86
2022-12-23T14:08:56.086Z,8.00